Time;durP1;ratioP1;P1;durP2;ratioP2;P2;SDS_P1;SDS_P2;PMS_P1;PMS_P2;Temp;Humidity;BMP_temperature;BMP_pressure;BME280_temperature;BME280_humidity;BME280_pressure;Samples;Min_cycle;Max_cycle;Signal;HPM_P1;HPM_P2
2022/03/22 00:00:03;;;;;;;74.82;53.72;;;19.00;49.30;;;;;;5009859;27;90257;-77
2022/03/22 00:02:28;;;;;;;74.28;53.80;;;19.00;49.30;;;;;;5018243;27;89220;-77
2022/03/22 00:04:54;;;;;;;75.28;53.80;;;18.90;49.30;;;;;;5020825;27;92909;-77
2022/03/22 00:07:19;;;;;;;74.88;53.65;;;18.90;49.20;;;;;;5011970;27;90433;-77
2022/03/22 00:09:45;;;;;;;75.53;53.63;;;18.90;49.30;;;;;;5009652;27;90798;-77
2022/03/22 00:12:11;;;;;;;76.75;54.35;;;18.90;49.30;;;;;;5004686;27;90757;-77
2022/03/22 00:14:36;;;;;;;75.28;53.78;;;18.80;49.30;;;;;;5003922;27;92141;-76
2022/03/22 00:17:03;;;;;;;74.63;53.95;;;18.80;49.30;;;;;;5006545;27;90031;-77
2022/03/22 00:19:29;;;;;;;74.43;53.72;;;18.80;49.30;;;;;;5011859;27;89330;-77
2022/03/22 00:21:54;;;;;;;76.45;53.88;;;18.80;49.30;;;;;;5008161;27;89862;-77
2022/03/22 00:24:20;;;;;;;75.03;53.67;;;18.80;49.30;;;;;;5008877;27;91174;-76
2022/03/22 00:26:46;;;;;;;73.97;53.45;;;18.80;49.40;;;;;;5012996;27;90996;-76
2022/03/22 00:29:11;;;;;;;74.93;54.22;;;18.80;49.40;;;;;;5011652;27;90028;-76
2022/03/22 00:31:37;;;;;;;75.03;53.83;;;18.70;49.40;;;;;;5010355;27;90138;-76
2022/03/22 00:34:03;;;;;;;75.47;53.78;;;18.70;49.40;;;;;;5004444;27;92249;-75
2022/03/22 00:36:31;;;;;;;74.38;53.65;;;18.70;49.40;;;;;;5011763;27;91486;-75
2022/03/22 00:38:56;;;;;;;74.22;53.38;;;18.70;49.50;;;;;;5023280;27;89547;-75
2022/03/22 00:41:22;;;;;;;73.90;53.58;;;18.70;49.50;;;;;;5027942;27;90180;-75
2022/03/22 00:43:48;;;;;;;73.85;53.63;;;18.60;49.50;;;;;;5024241;27;90637;-75
2022/03/22 00:46:13;;;;;;;74.53;53.85;;;18.60;49.50;;;;;;5013396;27;90335;-75
2022/03/22 00:48:40;;;;;;;73.65;53.53;;;18.60;49.60;;;;;;5007099;27;91475;-75
2022/03/22 00:51:06;;;;;;;74.32;53.35;;;18.60;49.60;;;;;;5007469;27;89314;-74
2022/03/22 00:53:32;;;;;;;75.50;53.45;;;18.60;49.60;;;;;;5005598;27;90559;-75
2022/03/22 00:56:01;;;;;;;75.80;53.80;;;18.50;49.60;;;;;;5001446;27;90315;-74
2022/03/22 00:58:26;;;;;;;75.40;53.35;;;18.60;49.60;;;;;;4999714;27;91065;-75
2022/03/22 01:00:52;;;;;;;75.55;53.50;;;18.50;49.70;;;;;;5007021;27;90152;-76
2022/03/22 01:03:17;;;;;;;74.07;53.28;;;18.50;49.60;;;;;;5005602;27;90952;-75
2022/03/22 01:05:43;;;;;;;75.43;53.88;;;18.50;49.70;;;;;;5002839;27;90798;-75
2022/03/22 01:08:11;;;;;;;75.53;53.60;;;18.50;49.70;;;;;;5006720;27;91130;-76
2022/03/22 01:10:41;;;;;;;75.03;53.53;;;18.50;49.70;;;;;;5006035;27;90005;-75
2022/03/22 01:13:08;;;;;;;73.90;53.22;;;18.50;49.70;;;;;;4998005;27;89639;-75
2022/03/22 01:15:35;;;;;;;74.07;53.60;;;18.50;49.70;;;;;;5004994;27;91872;-75
2022/03/22 01:18:07;;;;;;;75.13;54.05;;;18.50;49.70;;;;;;5011674;27;90230;-76
2022/03/22 01:20:40;;;;;;;75.60;53.53;;;18.50;49.70;;;;;;5004545;27;90307;-76
2022/03/22 01:23:07;;;;;;;74.28;53.67;;;18.40;49.70;;;;;;5012795;27;91427;-76
2022/03/22 01:25:34;;;;;;;72.55;53.10;;;18.40;49.70;;;;;;5015370;27;90145;-76
2022/03/22 01:28:02;;;;;;;73.57;52.88;;;18.40;49.80;;;;;;5012805;27;91491;-77
2022/03/22 01:30:29;;;;;;;73.55;53.17;;;18.40;49.70;;;;;;5010645;27;89790;-77
2022/03/22 01:32:55;;;;;;;73.35;53.17;;;18.40;49.70;;;;;;5018245;27;90598;-76
2022/03/22 01:35:22;;;;;;;74.28;53.30;;;18.40;49.70;;;;;;5013234;27;91163;-76
2022/03/22 01:37:49;;;;;;;73.93;53.17;;;18.40;49.70;;;;;;5008770;27;89499;-76
2022/03/22 01:40:16;;;;;;;73.50;52.95;;;18.30;49.70;;;;;;4998775;27;90034;-77
2022/03/22 01:42:42;;;;;;;73.10;53.10;;;18.30;49.70;;;;;;5015052;27;91548;-77
2022/03/22 01:45:09;;;;;;;73.63;53.13;;;18.30;49.70;;;;;;5013317;27;91594;-76
2022/03/22 01:47:37;;;;;;;73.18;53.15;;;18.30;49.70;;;;;;5012695;27;91900;-77
2022/03/22 01:50:04;;;;;;;74.43;53.70;;;18.30;49.70;;;;;;5017236;27;89830;-76
2022/03/22 01:52:34;;;;;;;72.93;53.22;;;18.30;49.70;;;;;;5006365;27;91986;-76
2022/03/22 01:55:00;;;;;;;74.43;52.85;;;18.30;49.70;;;;;;5012096;27;90907;-76
2022/03/22 01:57:26;;;;;;;73.22;53.20;;;18.20;49.70;;;;;;5006836;27;90801;-76
2022/03/22 01:59:52;;;;;;;73.82;53.45;;;18.20;49.80;;;;;;4999619;27;96359;-76
2022/03/22 02:07:48;;;;;;;73.40;53.20;;;18.20;49.90;;;;;;5008101;27;91149;-76
2022/03/22 02:10:15;;;;;;;76.22;54.08;;;18.20;49.90;;;;;;5010997;27;91815;-77
2022/03/22 02:12:44;;;;;;;72.43;53.05;;;18.20;49.80;;;;;;5012782;27;91692;-77
2022/03/22 02:15:12;;;;;;;74.03;53.50;;;18.20;49.80;;;;;;5008512;27;91696;-76
2022/03/22 02:17:38;;;;;;;74.00;53.05;;;18.10;49.80;;;;;;5008046;27;91055;-76
2022/03/22 02:20:04;;;;;;;74.18;52.95;;;18.10;49.80;;;;;;5012916;27;90034;-76
2022/03/22 02:22:36;;;;;;;72.63;53.08;;;18.20;49.90;;;;;;5010550;27;92771;-76
2022/03/22 02:25:02;;;;;;;;;;;18.10;49.80;;;;;;5012349;27;91541;-76
2022/03/22 02:27:29;;;;;;;73.03;53.00;;;18.10;49.90;;;;;;5010966;27;90696;-76
2022/03/22 02:29:56;;;;;;;73.47;53.05;;;18.10;49.90;;;;;;5011704;27;89452;-76
2022/03/22 02:32:24;;;;;;;73.28;52.95;;;18.10;49.90;;;;;;5008973;27;91641;-76
2022/03/22 02:34:50;;;;;;;72.78;53.25;;;18.10;49.80;;;;;;5010405;27;91326;-76
2022/03/22 02:37:16;;;;;;;73.82;53.05;;;18.10;49.80;;;;;;5011484;27;92018;-77
2022/03/22 02:39:42;;;;;;;72.47;52.85;;;18.10;49.80;;;;;;5011925;27;90015;-76
2022/03/22 02:42:08;;;;;;;71.88;52.80;;;18.10;49.90;;;;;;5016240;27;90244;-76
2022/03/22 02:44:34;;;;;;;73.28;52.60;;;18.10;49.90;;;;;;5007568;27;90041;-76
2022/03/22 02:46:59;;;;;;;72.03;52.78;;;18.00;49.90;;;;;;5010519;27;89727;-75
2022/03/22 02:49:25;;;;;;;72.75;53.13;;;18.00;50.00;;;;;;5006929;27;93077;-75
2022/03/22 02:51:51;;;;;;;72.78;52.72;;;18.00;49.90;;;;;;5010534;27;90077;-75
2022/03/22 02:54:16;;;;;;;72.30;52.55;;;18.00;49.90;;;;;;5008265;27;89357;-74
2022/03/22 02:56:42;;;;;;;72.45;52.90;;;18.00;49.80;;;;;;5012398;27;90958;-75
2022/03/22 02:59:08;;;;;;;73.63;53.05;;;18.00;49.80;;;;;;5008617;27;90147;-74
2022/03/22 03:01:34;;;;;;;72.95;52.72;;;18.00;49.80;;;;;;5003534;27;96363;-75
2022/03/22 03:04:00;;;;;;;73.80;53.10;;;18.00;49.80;;;;;;4991005;27;90405;-76
2022/03/22 03:06:30;;;;;;;72.45;52.78;;;18.00;49.90;;;;;;4997707;27;89700;-76
2022/03/22 03:08:58;;;;;;;73.13;52.85;;;18.00;49.90;;;;;;5001210;27;89524;-76
2022/03/22 03:11:25;;;;;;;73.10;53.17;;;18.00;49.90;;;;;;5006988;27;90664;-76
2022/03/22 03:16:35;;;;;;;73.68;53.20;;;18.00;49.90;;;;;;5011252;27;89809;-76
2022/03/22 03:19:00;;;;;;;71.93;52.88;;;18.00;49.90;;;;;;5004419;27;89501;-76
2022/03/22 03:21:26;;;;;;;72.75;52.67;;;18.00;49.90;;;;;;5010980;27;90469;-76
2022/03/22 03:23:51;;;;;;;73.03;52.92;;;18.00;49.80;;;;;;5016777;27;91639;-76
2022/03/22 03:26:17;;;;;;;71.57;52.63;;;17.90;49.80;;;;;;5021351;27;90393;-76
2022/03/22 03:28:42;;;;;;;71.95;52.67;;;17.90;49.80;;;;;;5027577;27;89440;-76
2022/03/22 03:31:08;;;;;;;72.43;52.75;;;17.90;49.90;;;;;;5028178;27;89753;-76
2022/03/22 03:33:34;;;;;;;72.25;52.75;;;17.90;49.90;;;;;;5030457;27;89581;-76
2022/03/22 03:35:59;;;;;;;73.30;52.92;;;17.90;49.90;;;;;;5017941;27;89470;-76
2022/03/22 03:38:26;;;;;;;74.05;53.15;;;17.90;49.90;;;;;;5015483;27;89840;-76
2022/03/22 03:43:35;;;;;;;71.65;52.58;;;17.90;49.90;;;;;;5010436;27;89052;-76
2022/03/22 03:48:45;;;;;;;73.53;52.65;;;17.90;49.80;;;;;;5017306;27;90152;-77
2022/03/22 03:51:11;;;;;;;72.63;52.78;;;17.90;49.90;;;;;;5004446;27;93051;-76
2022/03/22 03:53:37;;;;;;;74.82;53.13;;;17.90;49.90;;;;;;5009497;27;94840;-76
2022/03/22 03:56:02;;;;;;;72.53;52.78;;;17.90;49.80;;;;;;5012955;27;90437;-75
2022/03/22 03:58:28;;;;;;;73.07;52.78;;;17.90;49.90;;;;;;5008148;27;90709;-76
2022/03/22 04:01:34;;;;;;;72.82;53.38;;;17.90;49.90;;;;;;5001784;27;92270;-76
2022/03/22 04:03:59;;;;;;;73.47;52.70;;;17.80;49.80;;;;;;5010520;27;90770;-76
2022/03/22 04:06:25;;;;;;;72.85;52.90;;;17.80;49.90;;;;;;5009731;27;90474;-76
2022/03/22 04:08:52;;;;;;;73.57;52.90;;;17.80;49.90;;;;;;5007843;27;89398;-76
2022/03/22 04:11:17;;;;;;;73.45;53.22;;;17.90;49.90;;;;;;4996731;27;90090;-75
2022/03/22 04:13:45;;;;;;;71.10;52.47;;;17.80;49.80;;;;;;4999978;27;91327;-75
2022/03/22 04:16:10;;;;;;;73.85;53.13;;;17.80;49.90;;;;;;4994821;27;91228;-75
2022/03/22 04:18:36;;;;;;;71.30;52.33;;;17.80;49.90;;;;;;5008139;27;89825;-75
2022/03/22 04:21:09;;;;;;;74.20;52.63;;;17.80;49.90;;;;;;5015341;27;95163;-75
2022/03/22 04:23:34;;;;;;;73.50;52.38;;;17.80;49.90;;;;;;5007797;27;91308;-75
2022/03/22 04:26:00;;;;;;;72.70;52.92;;;17.80;49.90;;;;;;5003602;27;90595;-75
2022/03/22 04:33:54;;;;;;;72.28;52.53;;;17.70;49.80;;;;;;5009217;27;88634;-76
2022/03/22 04:36:20;;;;;;;72.90;52.55;;;17.80;49.90;;;;;;5009207;27;89521;-77
2022/03/22 04:38:46;;;;;;;72.80;52.97;;;17.80;49.90;;;;;;5010818;27;90543;-76
2022/03/22 04:41:11;;;;;;;73.85;52.80;;;17.70;49.90;;;;;;5011399;27;91727;-77
2022/03/22 04:43:37;;;;;;;72.32;52.38;;;17.70;49.90;;;;;;5013082;27;90714;-76
2022/03/22 04:46:03;;;;;;;73.00;52.70;;;17.70;49.90;;;;;;5008541;27;90758;-77
2022/03/22 04:48:29;;;;;;;72.70;52.70;;;17.70;49.90;;;;;;5016324;27;90191;-77
2022/03/22 04:59:08;;;;;;;74.22;52.38;;;17.70;49.90;;;;;;5009945;27;92514;-76
2022/03/22 05:01:33;;;;;;;72.15;52.30;;;17.70;49.90;;;;;;5012979;27;89844;-76
2022/03/22 05:03:59;;;;;;;73.20;52.58;;;17.70;50.00;;;;;;5007567;27;90112;-77
2022/03/22 05:06:28;;;;;;;72.88;52.92;;;17.60;49.90;;;;;;5013400;27;91475;-77
2022/03/22 05:08:54;;;;;;;73.65;52.38;;;17.70;50.00;;;;;;5014442;27;90600;-77
2022/03/22 05:11:21;;;;;;;73.50;53.08;;;17.70;50.00;;;;;;5016664;27;90982;-78
2022/03/22 05:13:46;;;;;;;75.25;52.75;;;17.70;50.10;;;;;;5025175;27;90643;-77
2022/03/22 05:16:12;;;;;;;75.55;52.60;;;17.70;50.20;;;;;;5008378;27;89742;-77
2022/03/22 05:18:38;;;;;;;73.63;52.35;;;17.80;50.40;;;;;;5033041;27;89257;-77
2022/03/22 05:21:04;;;;;;;72.70;51.97;;;17.80;50.40;;;;;;5026395;27;89890;-76
2022/03/22 05:23:31;;;;;;;73.43;52.55;;;17.80;51.00;;;;;;5021624;27;90247;-77
2022/03/22 05:25:57;;;;;;;73.80;52.50;;;17.90;50.40;;;;;;5027259;28;90990;-77
2022/03/22 05:28:22;;;;;;;75.90;52.55;;;18.00;50.40;;;;;;5028579;27;89268;-76
2022/03/22 05:30:48;;;;;;;72.10;52.75;;;18.00;50.20;;;;;;5028868;27;90475;-75
2022/03/22 05:33:13;;;;;;;74.63;52.28;;;18.00;50.20;;;;;;5024388;28;90782;-76
2022/03/22 05:35:39;;;;;;;71.15;52.15;;;18.10;50.10;;;;;;5025493;27;89428;-75
2022/03/22 05:38:05;;;;;;;72.97;52.63;;;18.10;50.00;;;;;;5027719;27;91169;-75
2022/03/22 05:40:31;;;;;;;77.80;52.53;;;18.20;50.00;;;;;;5028936;28;90031;-76
2022/03/22 05:42:56;;;;;;;72.40;52.13;;;18.30;49.90;;;;;;5032679;27;89888;-76
2022/03/22 05:45:23;;;;;;;72.60;52.28;;;18.30;49.80;;;;;;5029393;27;89510;-76
2022/03/22 05:47:50;;;;;;;71.88;52.28;;;18.30;49.60;;;;;;5033422;28;88710;-77
2022/03/22 05:50:15;;;;;;;74.35;52.28;;;18.40;49.60;;;;;;5037189;27;90584;-76
2022/03/22 05:52:42;;;;;;;73.05;52.25;;;18.40;49.40;;;;;;5024190;27;92529;-76
2022/03/22 05:55:08;;;;;;;71.95;51.90;;;18.50;49.40;;;;;;5028097;28;90314;-76
2022/03/22 05:57:34;;;;;;;72.95;52.55;;;18.50;49.30;;;;;;5026628;28;89357;-77
2022/03/22 05:59:59;;;;;;;75.32;53.00;;;18.50;49.20;;;;;;5028676;28;90175;-78
2022/03/22 06:02:26;;;;;;;76.95;53.45;;;18.50;49.10;;;;;;5022230;27;89533;-78
2022/03/22 06:04:51;;;;;;;77.32;53.70;;;18.60;49.50;;;;;;5023626;27;89402;-77
2022/03/22 06:07:19;;;;;;;76.30;53.58;;;18.60;49.60;;;;;;5028386;27;89456;-78
2022/03/22 06:09:47;;;;;;;82.43;53.25;;;18.60;49.70;;;;;;5024560;27;89637;-78
2022/03/22 06:12:14;;;;;;;74.13;53.08;;;18.60;49.50;;;;;;5013022;27;90510;-77
2022/03/22 06:14:41;;;;;;;79.70;53.35;;;18.60;49.40;;;;;;5009601;27;89372;-77
2022/03/22 06:17:06;;;;;;;82.13;53.25;;;18.70;49.50;;;;;;5008621;27;90414;-77
2022/03/22 06:19:32;;;;;;;76.88;53.65;;;18.70;49.70;;;;;;5013372;27;91235;-77
2022/03/22 06:21:57;;;;;;;77.13;53.22;;;18.70;49.80;;;;;;5012932;27;93422;-77
2022/03/22 06:24:23;;;;;;;78.57;53.22;;;18.70;49.90;;;;;;5001200;27;89968;-77
2022/03/22 06:26:49;;;;;;;80.20;53.30;;;18.70;49.80;;;;;;5012276;27;93510;-78
2022/03/22 06:29:14;;;;;;;76.82;53.20;;;18.80;49.80;;;;;;5009482;27;90987;-77
2022/03/22 06:31:40;;;;;;;76.63;53.35;;;18.80;49.80;;;;;;5015610;27;90706;-76
2022/03/22 06:34:06;;;;;;;80.13;53.45;;;18.80;49.70;;;;;;5012875;27;90132;-78
2022/03/22 06:36:31;;;;;;;85.82;54.28;;;18.80;49.40;;;;;;5012339;27;90217;-77
2022/03/22 06:38:57;;;;;;;96.50;55.33;;;18.70;49.60;;;;;;5015551;27;90922;-77
2022/03/22 06:41:23;;;;;;;88.15;55.60;;;18.80;50.50;;;;;;5017595;27;91564;-77
2022/03/22 06:43:48;;;;;;;94.10;55.17;;;18.80;50.70;;;;;;5027256;27;91312;-77
2022/03/22 06:46:14;;;;;;;88.50;54.63;;;18.80;51.00;;;;;;5017241;27;89394;-77
2022/03/22 06:48:39;;;;;;;85.50;54.63;;;18.80;50.50;;;;;;5013335;27;94114;-77
2022/03/22 06:51:05;;;;;;;82.82;54.15;;;18.70;50.30;;;;;;5006394;27;89473;-77
2022/03/22 06:53:30;;;;;;;82.90;54.58;;;18.70;50.10;;;;;;5018742;27;89683;-77
2022/03/22 06:55:57;;;;;;;87.85;54.72;;;18.70;50.00;;;;;;5017308;27;89431;-77
2022/03/22 06:58:24;;;;;;;86.10;55.08;;;18.70;49.80;;;;;;5022529;27;94259;-77
2022/03/22 07:00:51;;;;;;;89.00;54.67;;;18.70;49.70;;;;;;5009016;27;91932;-77
2022/03/22 07:03:17;;;;;;;93.82;54.55;;;18.70;49.50;;;;;;5022334;27;89971;-77
2022/03/22 07:05:46;;;;;;;83.47;54.28;;;18.70;49.60;;;;;;5017840;27;89429;-76
2022/03/22 07:08:13;;;;;;;84.30;54.10;;;18.70;49.50;;;;;;5026383;27;90846;-76
2022/03/22 07:10:38;;;;;;;84.38;54.25;;;18.60;49.40;;;;;;5018780;27;92871;-76
2022/03/22 07:13:10;;;;;;;84.75;54.63;;;18.60;49.30;;;;;;5017306;27;89711;-77
2022/03/22 07:15:37;;;;;;;84.78;54.38;;;18.60;49.30;;;;;;5023492;27;89628;-76
2022/03/22 07:18:05;;;;;;;85.03;54.50;;;18.60;49.30;;;;;;5022599;27;91555;-77
2022/03/22 07:20:31;;;;;;;81.25;54.33;;;18.60;49.30;;;;;;5012488;27;90633;-77
2022/03/22 07:22:57;;;;;;;86.90;54.10;;;18.60;49.20;;;;;;5017621;27;90327;-77
2022/03/22 07:25:23;;;;;;;84.05;54.47;;;18.60;49.20;;;;;;5020447;27;90021;-77
2022/03/22 07:27:49;;;;;;;83.22;54.80;;;18.60;49.20;;;;;;5017306;27;90386;-77
2022/03/22 07:30:15;;;;;;;83.95;55.00;;;18.60;49.20;;;;;;5022772;27;92612;-77
2022/03/22 07:32:45;;;;;;;83.43;54.22;;;18.60;49.20;;;;;;5019787;27;91776;-77
2022/03/22 07:35:12;;;;;;;83.28;54.50;;;18.60;49.20;;;;;;5019472;27;90468;-77
2022/03/22 07:37:37;;;;;;;82.07;54.72;;;18.60;49.20;;;;;;5015459;27;90506;-77
2022/03/22 07:40:06;;;;;;;81.72;54.92;;;18.60;49.30;;;;;;5016350;27;90865;-77
2022/03/22 07:42:32;;;;;;;80.57;54.85;;;18.60;49.20;;;;;;5016125;27;90611;-76
2022/03/22 07:45:00;;;;;;;90.95;55.38;;;18.60;49.20;;;;;;5019590;27;89834;-76
2022/03/22 07:47:26;;;;;;;83.80;55.50;;;18.60;49.20;;;;;;5035171;27;91080;-77
2022/03/22 07:55:21;;;;;;;85.30;55.28;;;18.60;48.60;;;;;;4998848;27;95310;-77
2022/03/22 07:57:47;;;;;;;84.65;55.42;;;18.60;49.10;;;;;;4999340;27;92703;-77
2022/03/22 08:00:13;;;;;;;83.20;55.50;;;18.60;49.00;;;;;;5002439;27;90852;-77
2022/03/22 08:02:50;;;;;;;83.35;55.92;;;18.60;48.90;;;;;;5004605;27;89962;-77
2022/03/22 08:05:15;;;;;;;84.85;55.58;;;18.60;48.90;;;;;;5014541;27;91056;-77
2022/03/22 08:07:41;;;;;;;84.47;55.78;;;18.60;48.90;;;;;;5021674;27;93726;-77
2022/03/22 08:10:07;;;;;;;82.95;55.53;;;18.60;48.80;;;;;;5022217;27;90054;-77
2022/03/22 08:12:33;;;;;;;82.43;55.53;;;18.60;48.80;;;;;;5012737;27;89542;-77
2022/03/22 08:14:58;;;;;;;83.43;55.95;;;18.60;48.70;;;;;;5017073;27;88970;-77
2022/03/22 08:17:24;;;;;;;86.13;56.00;;;18.60;48.70;;;;;;5019067;27;91963;-77
2022/03/22 08:19:49;;;;;;;84.85;55.83;;;18.70;48.70;;;;;;5018322;27;91582;-77
2022/03/22 08:22:15;;;;;;;84.70;55.83;;;18.70;48.70;;;;;;5019160;27;90709;-77
2022/03/22 08:24:40;;;;;;;82.05;55.80;;;18.70;48.60;;;;;;5021131;27;90029;-77
2022/03/22 08:27:07;;;;;;;83.20;55.85;;;18.70;48.60;;;;;;5007444;27;90310;-77
2022/03/22 08:29:35;;;;;;;82.68;55.70;;;18.70;48.60;;;;;;5004055;27;91471;-78
2022/03/22 08:32:00;;;;;;;82.88;55.53;;;18.70;48.50;;;;;;4996841;27;94450;-77
2022/03/22 08:34:26;;;;;;;83.30;55.95;;;18.70;48.50;;;;;;5000640;27;89978;-77
2022/03/22 08:36:51;;;;;;;86.88;55.88;;;18.70;48.40;;;;;;4999306;27;92730;-77
2022/03/22 08:39:17;;;;;;;81.40;55.40;;;18.70;48.40;;;;;;5009707;27;91690;-77
2022/03/22 08:41:43;;;;;;;90.07;56.28;;;18.70;48.30;;;;;;5014585;27;90478;-77
2022/03/22 08:44:08;;;;;;;82.97;56.08;;;18.70;48.20;;;;;;5017890;27;89468;-77
2022/03/22 08:46:37;;;;;;;83.50;56.30;;;18.80;48.30;;;;;;5013943;27;90758;-77
2022/03/22 08:49:04;;;;;;;80.15;55.78;;;18.80;48.30;;;;;;5019011;27;91418;-77
2022/03/22 08:51:30;;;;;;;81.38;55.38;;;18.80;48.20;;;;;;5011855;27;89463;-78
2022/03/22 08:53:56;;;;;;;80.57;56.00;;;18.80;48.10;;;;;;5014555;27;89735;-77
2022/03/22 08:56:25;;;;;;;83.15;56.45;;;18.80;48.10;;;;;;5023584;27;90770;-77
2022/03/22 08:58:53;;;;;;;86.03;55.72;;;18.80;48.10;;;;;;5015728;27;90369;-77
2022/03/22 09:01:24;;;;;;;85.30;56.53;;;18.80;48.10;;;;;;5018915;27;89807;-78
2022/03/22 09:06:07;;;;;;;80.32;55.70;;;18.80;48.10;;;;;;5015092;27;89100;-77
2022/03/22 09:06:37;;;;;;;84.97;55.95;;;18.80;48.10;;;;;;5020659;27;91273;-77
2022/03/22 09:09:04;;;;;;;80.40;55.78;;;18.80;48.10;;;;;;5021934;27;92278;-77
2022/03/22 09:11:30;;;;;;;85.22;55.90;;;18.80;48.10;;;;;;5018425;27;91186;-77
2022/03/22 09:13:55;;;;;;;86.63;56.53;;;18.80;48.00;;;;;;5012638;27;90104;-77
2022/03/22 09:16:21;;;;;;;83.75;55.78;;;18.80;48.00;;;;;;5013515;27;90346;-77
2022/03/22 09:18:47;;;;;;;82.68;56.55;;;18.80;48.00;;;;;;5012544;27;90437;-77
2022/03/22 09:21:14;;;;;;;86.35;56.50;;;18.80;48.00;;;;;;5013533;27;90162;-78
2022/03/22 09:23:40;;;;;;;82.88;56.47;;;18.90;48.00;;;;;;5014367;27;94304;-77
2022/03/22 09:26:06;;;;;;;85.22;56.95;;;18.90;48.00;;;;;;5014320;27;91446;-77
2022/03/22 09:28:32;;;;;;;86.95;56.20;;;18.90;48.00;;;;;;5015792;27;89148;-78
2022/03/22 09:30:57;;;;;;;84.07;56.40;;;18.90;48.00;;;;;;5003966;27;90116;-77
2022/03/22 09:33:23;;;;;;;86.43;56.72;;;18.90;48.10;;;;;;5026483;27;90003;-78
2022/03/22 09:35:49;;;;;;;81.20;55.90;;;18.90;48.10;;;;;;5028565;27;90241;-78
2022/03/22 09:38:15;;;;;;;83.07;56.40;;;18.90;48.10;;;;;;5023088;28;90299;-78
2022/03/22 09:40:40;;;;;;;88.28;57.28;;;19.00;48.20;;;;;;5025820;27;89259;-77
2022/03/22 09:43:08;;;;;;;83.00;56.33;;;18.90;48.10;;;;;;5028668;28;89611;-77
2022/03/22 09:45:34;;;;;;;84.50;57.15;;;18.90;48.10;;;;;;5029083;27;89820;-78
2022/03/22 09:48:00;;;;;;;86.40;57.47;;;18.90;48.10;;;;;;5023963;27;89551;-78
2022/03/22 09:53:15;;;;;;;86.65;56.47;;;18.90;48.00;;;;;;5038960;27;88791;-78
2022/03/22 09:55:40;;;;;;;85.55;56.75;;;19.00;48.10;;;;;;5026768;27;89597;-77
2022/03/22 09:58:06;;;;;;;83.65;56.80;;;19.00;48.10;;;;;;5028607;27;89402;-77
2022/03/22 10:00:32;;;;;;;83.10;56.42;;;19.00;48.10;;;;;;5029646;27;90380;-77
2022/03/22 10:02:59;;;;;;;84.82;56.30;;;19.00;48.10;;;;;;5028860;27;90224;-77
2022/03/22 10:05:29;;;;;;;81.65;56.30;;;19.00;48.10;;;;;;5041545;27;90648;-77
2022/03/22 10:08:05;;;;;;;84.75;56.80;;;19.10;48.20;;;;;;5022764;27;93563;-77
2022/03/22 10:10:31;;;;;;;82.80;56.80;;;19.00;48.10;;;;;;5020516;27;89912;-77
2022/03/22 10:13:02;;;;;;;84.13;56.63;;;19.10;48.20;;;;;;5009179;27;89782;-77
2022/03/22 10:15:36;;;;;;;84.93;56.38;;;19.10;48.20;;;;;;5026307;27;90404;-77
2022/03/22 10:18:04;;;;;;;81.72;56.33;;;19.10;48.20;;;;;;5030467;27;89459;-77
2022/03/22 10:20:30;;;;;;;81.15;56.63;;;19.10;48.20;;;;;;5026624;27;89619;-77
2022/03/22 10:22:58;;;;;;;80.20;56.08;;;19.10;48.30;;;;;;5027557;27;90622;-77
2022/03/22 10:25:24;;;;;;;83.50;56.03;;;19.10;48.30;;;;;;5002191;27;91464;-77
2022/03/22 10:27:55;;;;;;;84.60;56.15;;;19.10;48.30;;;;;;5000636;27;91555;-77
2022/03/22 10:30:21;;;;;;;82.47;55.60;;;19.10;48.30;;;;;;5006776;27;90563;-77
2022/03/22 10:32:53;;;;;;;80.50;55.70;;;19.20;48.30;;;;;;5007387;27;90035;-78
2022/03/22 10:35:28;;;;;;;82.05;55.88;;;19.20;48.30;;;;;;5012208;27;91798;-77
2022/03/22 10:37:55;;;;;;;81.07;56.13;;;19.20;48.40;;;;;;5021783;27;90327;-77
2022/03/22 10:40:29;;;;;;;81.40;55.58;;;19.20;48.40;;;;;;5016847;27;89742;-77
2022/03/22 10:43:06;;;;;;;81.68;55.85;;;19.20;48.40;;;;;;5024238;27;89030;-77
2022/03/22 10:45:44;;;;;;;81.13;55.80;;;19.20;48.40;;;;;;5020866;27;92718;-77
2022/03/22 10:48:09;;;;;;;80.50;55.55;;;19.30;48.50;;;;;;5024631;27;89376;-77
2022/03/22 10:50:38;;;;;;;79.63;55.63;;;19.30;48.50;;;;;;5029365;27;90363;-77
2022/03/22 10:53:05;;;;;;;81.40;55.58;;;19.30;48.50;;;;;;5033603;27;89307;-77
2022/03/22 10:55:31;;;;;;;79.38;55.22;;;19.30;48.50;;;;;;5033393;28;90526;-77
2022/03/22 10:57:59;;;;;;;87.28;56.58;;;19.30;48.50;;;;;;5021175;27;89791;-77
2022/03/22 11:00:26;;;;;;;103.10;63.40;;;19.30;48.70;;;;;;5018130;27;90531;-77
2022/03/22 11:02:54;;;;;;;111.47;66.80;;;19.40;50.70;;;;;;5017601;27;89517;-78
2022/03/22 11:05:21;;;;;;;89.18;58.25;;;19.40;51.90;;;;;;5028988;27;92102;-77
2022/03/22 11:07:49;;;;;;;128.45;71.13;;;19.40;50.80;;;;;;5017985;27;90575;-77
2022/03/22 11:10:17;;;;;;;101.72;63.17;;;19.40;50.70;;;;;;5020291;27;89749;-78
2022/03/22 11:12:43;;;;;;;96.38;60.35;;;19.50;50.40;;;;;;5008502;27;90227;-77
2022/03/22 11:15:10;;;;;;;90.68;58.08;;;19.40;50.20;;;;;;5023010;27;93241;-77
2022/03/22 11:17:36;;;;;;;89.25;58.63;;;19.50;50.20;;;;;;5016729;27;92895;-77
2022/03/22 11:20:10;;;;;;;90.80;57.70;;;19.50;50.10;;;;;;5015054;27;89458;-77
2022/03/22 11:22:36;;;;;;;88.13;57.10;;;19.50;50.10;;;;;;5017146;27;89974;-77
2022/03/22 11:25:10;;;;;;;87.78;57.33;;;19.50;50.00;;;;;;5015153;27;90575;-78
2022/03/22 11:27:35;;;;;;;86.53;57.13;;;19.50;49.90;;;;;;5016455;27;90963;-77
2022/03/22 11:30:06;;;;;;;87.13;57.08;;;19.50;49.90;;;;;;5021464;27;91089;-77
2022/03/22 11:35:24;;;;;;;90.05;57.00;;;19.60;50.30;;;;;;5003915;27;91033;-77
2022/03/22 11:38:00;;;;;;;89.63;57.53;;;19.60;50.60;;;;;;5003308;27;91066;-77
2022/03/22 11:43:13;;;;;;;89.65;57.00;;;19.60;50.60;;;;;;5005560;27;92000;-77
2022/03/22 11:45:51;;;;;;;87.45;56.67;;;19.60;50.50;;;;;;5004921;27;92978;-77
2022/03/22 11:48:18;;;;;;;88.30;56.45;;;19.70;50.40;;;;;;5008077;27;89892;-77
2022/03/22 11:50:45;;;;;;;88.65;56.75;;;19.70;50.40;;;;;;5004279;27;91428;-78
2022/03/22 11:53:19;;;;;;;91.75;57.00;;;19.70;50.30;;;;;;5004509;27;89713;-76
2022/03/22 11:55:49;;;;;;;85.45;56.20;;;19.70;50.30;;;;;;5004215;27;91256;-77
2022/03/22 11:58:15;;;;;;;87.78;56.42;;;19.70;50.20;;;;;;5004475;27;90697;-77
2022/03/22 12:00:52;;;;;;;84.53;56.35;;;19.70;50.20;;;;;;4999950;27;90101;-78
2022/03/22 12:03:22;;;;;;;83.60;56.35;;;19.80;50.10;;;;;;4999973;27;91342;-77
2022/03/22 12:05:48;;;;;;;83.50;56.20;;;19.70;50.00;;;;;;5002737;27;95526;-77
2022/03/22 12:08:16;;;;;;;86.82;56.85;;;19.80;50.00;;;;;;5000520;27;90757;-77
2022/03/22 12:10:50;;;;;;;85.45;55.65;;;19.80;50.00;;;;;;5000100;27;89611;-77
2022/03/22 12:13:17;;;;;;;84.22;56.00;;;19.80;50.00;;;;;;4998429;27;94163;-77
2022/03/22 12:15:43;;;;;;;86.78;56.20;;;19.80;49.90;;;;;;5004440;27;91946;-77
2022/03/22 12:18:10;;;;;;;83.63;55.88;;;19.80;49.90;;;;;;5000273;27;90999;-78
2022/03/22 12:20:36;;;;;;;84.25;56.40;;;19.80;49.80;;;;;;5001148;27;91608;-77
2022/03/22 12:23:03;;;;;;;85.43;56.00;;;19.90;49.90;;;;;;5000339;27;89382;-78
2022/03/22 12:25:34;;;;;;;84.22;55.75;;;19.90;49.90;;;;;;5004336;27;91117;-77
2022/03/22 12:28:09;;;;;;;82.22;56.08;;;19.90;49.80;;;;;;5000994;27;92220;-77
2022/03/22 12:30:41;;;;;;;83.03;55.47;;;19.90;49.80;;;;;;4996086;27;93197;-77
2022/03/22 12:33:14;;;;;;;83.35;55.28;;;19.90;49.80;;;;;;5004351;27;91081;-78
2022/03/22 12:35:41;;;;;;;88.43;55.63;;;19.90;49.80;;;;;;5000167;27;92380;-77
2022/03/22 12:38:08;;;;;;;82.53;55.40;;;19.90;49.80;;;;;;4998843;27;90897;-77
2022/03/22 12:40:35;;;;;;;82.32;55.67;;;20.00;49.90;;;;;;5001752;27;90605;-77
2022/03/22 12:43:03;;;;;;;86.40;56.03;;;20.00;49.80;;;;;;4997313;27;91044;-77
2022/03/22 12:45:33;;;;;;;85.05;55.33;;;20.00;49.80;;;;;;5000708;27;91098;-77
2022/03/22 12:47:59;;;;;;;84.57;56.10;;;20.00;49.80;;;;;;5002023;27;92711;-77
2022/03/22 12:50:29;;;;;;;83.53;55.72;;;20.10;49.80;;;;;;4995328;27;90139;-77
2022/03/22 12:52:55;;;;;;;81.20;55.63;;;20.10;49.80;;;;;;4999332;27;91020;-77
2022/03/22 12:55:22;;;;;;;83.65;56.13;;;20.10;49.80;;;;;;5007379;27;93232;-77
2022/03/22 12:57:56;;;;;;;82.13;55.75;;;20.10;49.80;;;;;;4998717;27;90268;-77
2022/03/22 13:00:38;;;;;;;83.53;55.53;;;20.10;49.70;;;;;;5002869;27;89897;-77
2022/03/22 13:03:12;;;;;;;85.65;56.05;;;20.10;49.70;;;;;;5004514;27;90086;-77
2022/03/22 13:05:50;;;;;;;82.95;55.78;;;20.20;49.80;;;;;;4993217;27;90309;-77
2022/03/22 13:08:18;;;;;;;82.22;55.72;;;20.20;49.70;;;;;;4999514;27;90100;-77